Time;durP1;ratioP1;P1;durP2;ratioP2;P2;SDS_P1;SDS_P2;PMS_P1;PMS_P2;Temp;Humidity;BMP_temperature;BMP_pressure;BME280_temperature;BME280_humidity;BME280_pressure;Samples;Min_cycle;Max_cycle;Signal;HPM_P1;HPM_P2
2022/08/20 00:02:17;;;;;;;7.63;2.87;;;;;;;;;;5107000;28;20241;-74
2022/08/20 00:04:45;;;;;;;7.97;3.10;;;;;;;;;;5107347;28;20217;-74
2022/08/20 00:07:12;;;;;;;6.40;3.50;;;;;;;;;;5103465;28;20245;-74
2022/08/20 00:09:40;;;;;;;7.37;3.33;;;;;;;;;;5106800;28;20229;-74
2022/08/20 00:12:07;;;;;;;7.03;3.33;;;;;;;;;;5098531;28;20213;-74
2022/08/20 00:14:35;;;;;;;9.13;3.87;;;;;;;;;;5091981;28;20246;-74
2022/08/20 00:17:02;;;;;;;8.97;3.97;;;;;;;;;;5098653;28;20237;-74
2022/08/20 00:19:31;;;;;;;8.53;3.37;;;;;;;;;;5091952;28;20248;-74
2022/08/20 00:21:58;;;;;;;6.30;3.30;;;;;;;;;;5092297;28;20234;-75
2022/08/20 00:24:26;;;;;;;8.10;3.43;;;;;;;;;;5095944;28;20285;-74
2022/08/20 00:26:53;;;;;;;9.37;3.30;;;;;;;;;;5101023;28;20305;-75
2022/08/20 00:29:21;;;;;;;9.03;3.13;;;;;;;;;;5093992;28;20230;-74
2022/08/20 00:31:48;;;;;;;8.30;3.43;;;;;;;;;;5100053;28;20275;-74
2022/08/20 00:34:15;;;;;;;9.80;3.10;;;;;;;;;;5105957;28;20237;-74
2022/08/20 00:36:44;;;;;;;8.33;2.80;;;;;;;;;;5091477;28;20202;-74
2022/08/20 00:39:11;;;;;;;6.70;2.70;;;;;;;;;;5092185;28;20226;-74
2022/08/20 00:41:38;;;;;;;8.40;2.97;;;;;;;;;;5103387;28;20289;-74
2022/08/20 00:44:07;;;;;;;10.67;3.20;;;;;;;;;;5112707;28;20240;-74
2022/08/20 00:46:34;;;;;;;9.03;3.30;;;;;;;;;;5100640;28;20253;-74
2022/08/20 00:49:04;;;;;;;11.67;3.27;;;;;;;;;;5096580;28;20624;-74
2022/08/20 00:51:34;;;;;;;7.90;3.57;;;;;;;;;;5092861;28;20199;-75
2022/08/20 00:54:06;;;;;;;6.93;3.10;;;;;;;;;;5094398;28;20240;-74
2022/08/20 00:56:34;;;;;;;10.70;3.60;;;;;;;;;;5096429;28;20249;-74
2022/08/20 00:59:02;;;;;;;8.70;3.13;;;;;;;;;;5095317;28;20705;-75
2022/08/20 01:01:33;;;;;;;7.67;3.60;;;;;;;;;;5109606;28;20198;-74
2022/08/20 01:04:00;;;;;;;8.37;3.20;;;;;;;;;;5100454;28;20641;-74
2022/08/20 01:06:28;;;;;;;6.77;3.23;;;;;;;;;;5091961;28;20272;-74
2022/08/20 01:08:55;;;;;;;8.30;3.70;;;;;;;;;;5096213;28;20278;-75
2022/08/20 01:11:31;;;;;;;10.60;3.60;;;;;;;;;;5093792;28;20238;-74
2022/08/20 01:13:59;;;;;;;8.53;3.93;;;;;;;;;;5092811;28;20662;-75
2022/08/20 01:16:28;;;;;;;8.10;3.90;;;;;;;;;;5108928;28;20190;-74
2022/08/20 01:18:56;;;;;;;9.53;4.20;;;;;;;;;;5096627;28;20713;-74
2022/08/20 01:21:25;;;;;;;8.50;4.20;;;;;;;;;;5102202;28;20679;-74
2022/08/20 01:23:56;;;;;;;8.03;4.23;;;;;;;;;;5108935;28;20214;-74
2022/08/20 01:26:26;;;;;;;14.00;4.60;;;;;;;;;;5102700;28;20229;-74
2022/08/20 01:28:55;;;;;;;11.37;4.37;;;;;;;;;;5116383;28;20201;-75
2022/08/20 01:31:24;;;;;;;12.83;4.20;;;;;;;;;;5106804;28;20280;-74
2022/08/20 01:33:52;;;;;;;7.73;4.00;;;;;;;;;;5115688;28;20700;-74
2022/08/20 01:36:23;;;;;;;10.00;4.07;;;;;;;;;;5106652;28;20284;-74
2022/08/20 01:38:51;;;;;;;7.87;3.87;;;;;;;;;;5108529;28;20240;-74
2022/08/20 01:41:29;;;;;;;7.47;4.20;;;;;;;;;;5110969;28;20229;-74
2022/08/20 01:43:57;;;;;;;9.23;4.60;;;;;;;;;;5115807;27;20707;-74
2022/08/20 01:46:25;;;;;;;9.17;3.80;;;;;;;;;;5109761;28;20233;-74
2022/08/20 01:48:53;;;;;;;10.07;3.97;;;;;;;;;;5100503;28;20255;-74
2022/08/20 01:51:24;;;;;;;10.10;4.17;;;;;;;;;;5098885;28;20281;-74
2022/08/20 01:53:53;;;;;;;8.17;4.03;;;;;;;;;;5102579;28;20285;-74
2022/08/20 01:56:23;;;;;;;10.20;4.03;;;;;;;;;;5100912;28;20281;-75
2022/08/20 01:58:53;;;;;;;15.93;4.10;;;;;;;;;;5114189;28;20256;-74
2022/08/20 02:01:22;;;;;;;14.30;4.40;;;;;;;;;;5109543;28;20210;-74
2022/08/20 02:03:49;;;;;;;9.53;4.30;;;;;;;;;;5112513;28;20258;-74
2022/08/20 02:06:17;;;;;;;10.07;3.83;;;;;;;;;;5097673;28;20557;-75
2022/08/20 02:08:44;;;;;;;7.13;3.60;;;;;;;;;;5094980;28;20245;-75
2022/08/20 02:11:12;;;;;;;10.17;4.27;;;;;;;;;;5106771;28;20248;-74
2022/08/20 02:13:40;;;;;;;11.53;3.80;;;;;;;;;;5107073;28;20241;-74
2022/08/20 02:16:09;;;;;;;11.80;4.87;;;;;;;;;;5104662;28;20197;-74
2022/08/20 02:18:36;;;;;;;11.03;3.70;;;;;;;;;;5101268;28;20248;-74
2022/08/20 02:21:04;;;;;;;9.90;3.80;;;;;;;;;;5096256;28;20230;-74
2022/08/20 02:23:31;;;;;;;8.43;3.90;;;;;;;;;;5112436;28;20725;-74
2022/08/20 02:25:59;;;;;;;10.87;4.00;;;;;;;;;;5103881;28;20207;-75
2022/08/20 02:28:26;;;;;;;11.57;4.23;;;;;;;;;;5098318;28;20261;-74
2022/08/20 02:30:55;;;;;;;8.40;3.43;;;;;;;;;;5102577;28;20284;-74
2022/08/20 02:33:24;;;;;;;6.97;3.47;;;;;;;;;;5098496;28;20666;-74
2022/08/20 02:35:52;;;;;;;11.03;4.13;;;;;;;;;;5094562;28;20277;-74
2022/08/20 02:38:19;;;;;;;10.43;3.87;;;;;;;;;;5093151;28;20202;-74
2022/08/20 02:40:49;;;;;;;10.33;3.77;;;;;;;;;;5099116;28;20229;-74
2022/08/20 02:43:20;;;;;;;6.20;3.13;;;;;;;;;;5113558;28;20569;-74
2022/08/20 02:45:47;;;;;;;9.07;3.43;;;;;;;;;;5106420;28;20718;-74
2022/08/20 02:48:19;;;;;;;6.83;3.77;;;;;;;;;;5102820;28;20708;-74
2022/08/20 02:50:49;;;;;;;7.10;3.67;;;;;;;;;;5092418;28;20282;-74
2022/08/20 02:53:17;;;;;;;8.63;3.23;;;;;;;;;;5099220;28;20570;-74
2022/08/20 02:55:44;;;;;;;8.50;3.37;;;;;;;;;;5107837;28;20232;-74
2022/08/20 02:58:12;;;;;;;9.77;3.33;;;;;;;;;;5093155;28;20784;-75
2022/08/20 03:00:39;;;;;;;8.50;3.40;;;;;;;;;;5097269;28;20237;-75
2022/08/20 03:03:08;;;;;;;10.17;3.60;;;;;;;;;;5106889;28;20238;-75
2022/08/20 03:05:35;;;;;;;10.33;3.87;;;;;;;;;;5103350;28;20288;-75
2022/08/20 03:08:07;;;;;;;6.90;4.00;;;;;;;;;;5104406;28;21027;-75
2022/08/20 03:10:35;;;;;;;7.87;3.50;;;;;;;;;;5097816;28;20325;-75
2022/08/20 03:13:02;;;;;;;9.97;4.00;;;;;;;;;;5096673;28;20244;-75
2022/08/20 03:15:30;;;;;;;11.67;4.60;;;;;;;;;;5108542;28;20197;-75
2022/08/20 03:17:57;;;;;;;14.10;4.37;;;;;;;;;;5094789;28;20198;-76
2022/08/20 03:20:25;;;;;;;9.77;4.20;;;;;;;;;;5106303;28;20240;-75
2022/08/20 03:22:52;;;;;;;7.33;3.20;;;;;;;;;;5105903;28;20227;-75
2022/08/20 03:25:21;;;;;;;9.83;3.53;;;;;;;;;;5098411;28;20252;-75
2022/08/20 03:27:48;;;;;;;9.87;3.73;;;;;;;;;;5099964;28;20656;-75
2022/08/20 03:30:16;;;;;;;10.17;3.73;;;;;;;;;;5097589;28;20234;-75
2022/08/20 03:32:44;;;;;;;10.97;3.47;;;;;;;;;;5112432;28;20255;-75
2022/08/20 03:35:12;;;;;;;9.17;3.30;;;;;;;;;;5105573;28;20895;-75
2022/08/20 03:37:40;;;;;;;8.73;3.40;;;;;;;;;;5092812;28;20285;-75
2022/08/20 03:40:09;;;;;;;6.27;3.20;;;;;;;;;;5105081;28;20745;-75
2022/08/20 03:42:39;;;;;;;8.67;3.60;;;;;;;;;;5099232;28;20202;-75
2022/08/20 03:45:06;;;;;;;9.90;4.27;;;;;;;;;;5104337;28;20221;-75
2022/08/20 03:47:34;;;;;;;9.77;3.57;;;;;;;;;;5096902;28;20313;-75
2022/08/20 03:50:01;;;;;;;6.67;3.80;;;;;;;;;;5099458;28;20284;-75
2022/08/20 03:52:29;;;;;;;10.30;3.70;;;;;;;;;;5105339;28;20193;-75
2022/08/20 03:54:56;;;;;;;8.47;3.77;;;;;;;;;;5102966;28;20680;-75
2022/08/20 03:57:23;;;;;;;5.73;3.27;;;;;;;;;;5108595;28;20253;-75
2022/08/20 03:59:52;;;;;;;9.80;3.70;;;;;;;;;;5103417;28;20221;-74
2022/08/20 04:02:19;;;;;;;6.70;3.90;;;;;;;;;;5108527;28;20233;-74
2022/08/20 04:04:46;;;;;;;7.50;3.50;;;;;;;;;;5104849;28;20304;-75
2022/08/20 04:07:14;;;;;;;9.10;3.63;;;;;;;;;;5099094;28;20297;-75
2022/08/20 04:09:42;;;;;;;8.13;3.30;;;;;;;;;;5103317;28;20280;-75
2022/08/20 04:12:11;;;;;;;8.67;3.43;;;;;;;;;;5105022;28;20202;-74
2022/08/20 04:14:39;;;;;;;8.07;3.20;;;;;;;;;;5101790;28;20201;-75
2022/08/20 04:17:09;;;;;;;11.53;3.37;;;;;;;;;;5105806;28;20221;-74
2022/08/20 04:19:36;;;;;;;6.87;3.20;;;;;;;;;;5103461;28;20246;-74
2022/08/20 04:22:04;;;;;;;8.37;3.33;;;;;;;;;;5096801;28;20190;-74
2022/08/20 04:24:32;;;;;;;10.77;3.57;;;;;;;;;;5097207;28;20281;-74
2022/08/20 04:27:01;;;;;;;18.43;4.20;;;;;;;;;;5098436;28;20241;-74
2022/08/20 04:29:28;;;;;;;20.13;4.23;;;;;;;;;;5091977;28;20203;-74
2022/08/20 04:31:55;;;;;;;9.20;3.83;;;;;;;;;;5103363;28;20244;-74
2022/08/20 04:34:24;;;;;;;15.17;4.50;;;;;;;;;;5089785;28;20194;-74
2022/08/20 04:36:51;;;;;;;18.70;4.80;;;;;;;;;;5091785;28;20666;-74
2022/08/20 04:39:19;;;;;;;16.10;4.20;;;;;;;;;;5091538;28;20663;-74
2022/08/20 04:41:46;;;;;;;11.40;3.93;;;;;;;;;;5091609;28;20226;-74
2022/08/20 04:44:13;;;;;;;18.23;4.60;;;;;;;;;;5101250;28;20202;-74
2022/08/20 04:46:40;;;;;;;13.30;3.93;;;;;;;;;;5094886;28;20229;-74
2022/08/20 04:49:08;;;;;;;10.47;3.70;;;;;;;;;;5091671;28;20698;-75
2022/08/20 04:51:37;;;;;;;11.23;3.73;;;;;;;;;;5096825;28;20209;-74
2022/08/20 04:54:04;;;;;;;11.00;3.90;;;;;;;;;;5111852;28;20205;-74
2022/08/20 04:56:36;;;;;;;9.53;4.30;;;;;;;;;;5103064;28;20716;-74
2022/08/20 04:59:04;;;;;;;8.83;4.37;;;;;;;;;;5103320;28;20263;-75
2022/08/20 05:01:31;;;;;;;8.43;4.20;;;;;;;;;;5095616;28;20293;-75
2022/08/20 05:04:00;;;;;;;7.03;3.90;;;;;;;;;;5096347;28;20186;-74
2022/08/20 05:06:29;;;;;;;9.67;3.97;;;;;;;;;;5111551;28;20288;-75
2022/08/20 05:08:58;;;;;;;10.30;4.20;;;;;;;;;;5100551;28;20624;-74
2022/08/20 05:11:26;;;;;;;4.90;3.63;;;;;;;;;;5103578;28;20244;-74
2022/08/20 05:13:53;;;;;;;6.93;3.53;;;;;;;;;;5115633;28;20981;-75
2022/08/20 05:16:20;;;;;;;5.77;3.17;;;;;;;;;;5112496;28;20228;-74
2022/08/20 05:18:47;;;;;;;4.80;3.07;;;;;;;;;;5109180;28;20280;-75
2022/08/20 05:21:14;;;;;;;4.40;3.03;;;;;;;;;;5104309;28;20245;-74
2022/08/20 05:23:42;;;;;;;3.80;2.70;;;;;;;;;;5105814;28;20284;-75
2022/08/20 05:26:11;;;;;;;3.67;3.10;;;;;;;;;;5093666;28;20222;-74
2022/08/20 05:28:40;;;;;;;6.43;4.13;;;;;;;;;;5094249;28;20222;-74
2022/08/20 05:31:08;;;;;;;8.97;4.40;;;;;;;;;;5093182;28;20222;-74
2022/08/20 05:33:36;;;;;;;7.10;4.70;;;;;;;;;;5093795;28;20198;-74
2022/08/20 05:36:05;;;;;;;10.70;4.97;;;;;;;;;;5111240;28;20668;-75
2022/08/20 05:38:33;;;;;;;24.13;5.80;;;;;;;;;;5115033;28;20192;-74
2022/08/20 05:41:01;;;;;;;14.57;5.70;;;;;;;;;;5115067;28;20602;-75
2022/08/20 05:43:32;;;;;;;7.57;5.23;;;;;;;;;;5098961;28;20621;-74
2022/08/20 05:46:00;;;;;;;6.73;4.87;;;;;;;;;;5104267;28;20704;-75
2022/08/20 05:48:27;;;;;;;6.90;4.07;;;;;;;;;;5107798;28;20226;-74
2022/08/20 05:50:55;;;;;;;8.50;4.73;;;;;;;;;;5099608;28;20279;-74
2022/08/20 05:53:23;;;;;;;9.17;4.17;;;;;;;;;;5096442;28;20229;-74
2022/08/20 05:55:50;;;;;;;7.50;4.00;;;;;;;;;;5097816;28;20197;-74
2022/08/20 05:58:19;;;;;;;5.10;3.50;;;;;;;;;;5094762;28;20273;-74
2022/08/20 06:00:48;;;;;;;5.57;3.70;;;;;;;;;;5112684;28;20194;-74
2022/08/20 06:06:01;;;;;;;6.30;3.20;;;;;;;;;;5111528;28;20577;-74
2022/08/20 06:08:29;;;;;;;4.13;3.17;;;;;;;;;;5101688;28;20578;-74
2022/08/20 06:10:56;;;;;;;5.87;3.40;;;;;;;;;;5103547;28;20225;-74
2022/08/20 06:13:23;;;;;;;4.47;2.80;;;;;;;;;;5101473;28;20226;-74
2022/08/20 06:15:52;;;;;;;6.77;3.23;;;;;;;;;;5101988;28;20197;-75
2022/08/20 06:18:19;;;;;;;4.67;3.27;;;;;;;;;;5108431;28;20697;-74
2022/08/20 06:20:46;;;;;;;3.63;2.77;;;;;;;;;;5103960;28;20259;-74
2022/08/20 06:23:13;;;;;;;5.30;3.07;;;;;;;;;;5095077;28;20245;-75
2022/08/20 06:25:41;;;;;;;4.37;3.10;;;;;;;;;;5094916;28;20252;-75
2022/08/20 06:28:09;;;;;;;5.10;3.10;;;;;;;;;;5103120;28;20217;-74
2022/08/20 06:30:37;;;;;;;5.93;3.30;;;;;;;;;;5095750;28;20244;-75
2022/08/20 06:33:06;;;;;;;5.60;3.47;;;;;;;;;;5107735;28;20285;-75
2022/08/20 06:35:33;;;;;;;7.43;3.80;;;;;;;;;;5102714;27;20230;-74
2022/08/20 06:38:00;;;;;;;4.90;3.47;;;;;;;;;;5097706;28;20205;-77
2022/08/20 06:40:29;;;;;;;5.53;3.60;;;;;;;;;;5099339;28;20724;-77
2022/08/20 06:42:57;;;;;;;8.57;3.60;;;;;;;;;;5104903;28;20230;-77
2022/08/20 06:48:20;;;;;;;7.80;3.37;;;;;;;;;;5110042;27;20563;-78
2022/08/20 06:50:48;;;;;;;5.53;3.70;;;;;;;;;;5102697;28;20222;-78
2022/08/20 06:53:16;;;;;;;7.70;3.63;;;;;;;;;;5092593;28;20290;-77
2022/08/20 06:55:46;;;;;;;7.00;3.50;;;;;;;;;;5089668;28;20289;-77
2022/08/20 06:58:13;;;;;;;6.40;3.30;;;;;;;;;;5085424;28;20242;-77
2022/08/20 07:00:42;;;;;;;5.70;3.13;;;;;;;;;;5082029;28;20283;-77
2022/08/20 07:03:09;;;;;;;7.73;3.33;;;;;;;;;;5083778;28;20194;-77
2022/08/20 07:05:40;;;;;;;8.23;3.67;;;;;;;;;;5086625;28;20559;-77
2022/08/20 07:08:08;;;;;;;5.13;3.43;;;;;;;;;;5075316;28;20273;-79
2022/08/20 07:10:46;;;;;;;6.87;3.70;;;;;;;;;;5081098;28;20221;-77
2022/08/20 07:13:15;;;;;;;8.57;3.20;;;;;;;;;;5076688;28;20238;-79
2022/08/20 07:15:42;;;;;;;10.63;3.50;;;;;;;;;;5072969;28;20210;-77
2022/08/20 07:18:09;;;;;;;11.00;3.70;;;;;;;;;;5070183;28;20246;-78
2022/08/20 07:20:39;;;;;;;8.27;3.50;;;;;;;;;;5077335;28;20249;-78
2022/08/20 07:23:07;;;;;;;9.07;2.92;;;;;;;;;;5085476;28;20194;-78
2022/08/20 07:25:34;;;;;;;7.60;2.70;;;;;;;;;;5079709;28;20230;-79
2022/08/20 07:28:02;;;;;;;7.50;2.88;;;;;;;;;;5080996;28;20262;-78
2022/08/20 07:33:29;;;;;;;8.40;2.53;;;;;;;;;;4997814;28;20198;-77
2022/08/20 07:35:58;;;;;;;12.80;2.50;;;;;;;;;;4997061;28;20936;-77
2022/08/20 07:38:26;;;;;;;11.88;2.60;;;;;;;;;;5000436;28;20232;-77
2022/08/20 07:40:53;;;;;;;11.85;3.00;;;;;;;;;;4987498;28;20208;-77
2022/08/20 07:43:22;;;;;;;7.88;2.72;;;;;;;;;;4988129;28;20221;-78
2022/08/20 07:45:49;;;;;;;9.98;2.72;;;;;;;;;;4991201;28;20205;-77
2022/08/20 07:48:17;;;;;;;10.35;2.90;;;;;;;;;;5002436;28;20287;-77
2022/08/20 07:50:45;;;;;;;9.43;2.65;;;;;;;;;;5004417;28;20301;-78
2022/08/20 07:53:14;;;;;;;11.63;2.40;;;;;;;;;;4994303;28;20210;-78
2022/08/20 07:55:41;;;;;;;10.80;2.47;;;;;;;;;;5002202;28;20252;-78
2022/08/20 07:58:11;;;;;;;7.57;2.40;;;;;;;;;;4997642;28;20313;-76
2022/08/20 08:00:39;;;;;;;9.70;2.15;;;;;;;;;;4974474;28;20267;-78
2022/08/20 08:03:06;;;;;;;7.60;2.22;;;;;;;;;;4977692;28;20285;-77
2022/08/20 08:05:34;;;;;;;5.82;2.03;;;;;;;;;;5052498;28;20227;-78
2022/08/20 08:08:01;;;;;;;7.45;2.05;;;;;;;;;;5061666;28;20219;-78
2022/08/20 08:10:30;;;;;;;8.63;2.13;;;;;;;;;;5057048;28;20227;-78
2022/08/20 08:12:59;;;;;;;10.52;1.98;;;;;;;;;;5058708;28;20250;-77
2022/08/20 08:15:30;;;;;;;6.95;1.95;;;;;;;;;;5051059;28;20378;-78
2022/08/20 08:17:59;;;;;;;8.38;2.35;;;;;;;;;;5059894;28;20553;-76
2022/08/20 08:20:26;;;;;;;8.43;2.50;;;;;;;;;;5068569;28;20245;-78
2022/08/20 08:22:54;;;;;;;7.35;2.22;;;;;;;;;;5065180;28;20328;-78
2022/08/20 08:25:21;;;;;;;10.30;2.80;;;;;;;;;;5057534;28;20211;-78
2022/08/20 08:27:50;;;;;;;8.50;2.42;;;;;;;;;;5062598;28;20211;-78
2022/08/20 08:30:17;;;;;;;9.27;2.25;;;;;;;;;;5073169;28;20725;-78
2022/08/20 08:35:32;;;;;;;9.65;2.60;;;;;;;;;;4981566;28;21007;-78
2022/08/20 08:38:01;;;;;;;12.20;2.40;;;;;;;;;;4994315;28;20292;-78
2022/08/20 08:40:29;;;;;;;8.48;2.28;;;;;;;;;;4985814;28;20674;-78
2022/08/20 08:42:59;;;;;;;9.18;2.22;;;;;;;;;;4976649;28;20237;-79
2022/08/20 08:45:27;;;;;;;7.72;2.20;;;;;;;;;;4985941;28;20202;-78
2022/08/20 08:47:57;;;;;;;7.75;2.10;;;;;;;;;;4989138;28;20328;-78
2022/08/20 08:50:26;;;;;;;10.95;2.22;;;;;;;;;;4985831;28;21140;-79
2022/08/20 08:52:58;;;;;;;7.30;2.20;;;;;;;;;;4982041;28;20198;-78
2022/08/20 08:55:25;;;;;;;7.63;1.92;;;;;;;;;;4972620;28;20214;-79
2022/08/20 08:57:54;;;;;;;7.47;2.35;;;;;;;;;;4979885;28;20218;-78
2022/08/20 09:00:23;;;;;;;7.38;2.08;;;;;;;;;;4985783;28;20229;-79
2022/08/20 09:02:58;;;;;;;5.90;1.65;;;;;;;;;;4973226;28;20249;-79
2022/08/20 09:05:27;;;;;;;6.65;2.00;;;;;;;;;;4984910;28;20198;-78
2022/08/20 09:07:54;;;;;;;8.35;2.13;;;;;;;;;;4985866;28;20345;-79
2022/08/20 09:10:22;;;;;;;8.32;2.15;;;;;;;;;;4993813;28;20244;-79
2022/08/20 09:12:49;;;;;;;7.75;2.13;;;;;;;;;;5029020;28;20200;-79
2022/08/20 09:15:16;;;;;;;8.75;2.08;;;;;;;;;;5067117;28;20991;-78
2022/08/20 09:17:45;;;;;;;5.47;1.67;;;;;;;;;;5055445;28;20194;-76
2022/08/20 09:20:12;;;;;;;4.63;1.77;;;;;;;;;;5056730;28;20195;-76
2022/08/20 09:22:41;;;;;;;6.32;2.00;;;;;;;;;;5067955;28;20249;-78
2022/08/20 09:25:09;;;;;;;7.57;2.08;;;;;;;;;;5057155;28;20207;-78
2022/08/20 09:27:36;;;;;;;8.25;2.10;;;;;;;;;;5062873;28;20261;-78
2022/08/20 09:30:04;;;;;;;8.18;1.90;;;;;;;;;;5065721;28;20230;-76
2022/08/20 09:32:31;;;;;;;6.43;1.67;;;;;;;;;;5065795;28;20260;-78
2022/08/20 09:35:00;;;;;;;8.77;2.10;;;;;;;;;;5054865;28;20250;-76
2022/08/20 09:37:29;;;;;;;7.32;1.85;;;;;;;;;;5058601;28;20188;-77
2022/08/20 09:39:57;;;;;;;8.27;1.70;;;;;;;;;;5056673;28;20766;-77
2022/08/20 09:42:26;;;;;;;5.95;1.73;;;;;;;;;;5057964;28;20223;-77
2022/08/20 09:44:53;;;;;;;6.15;1.63;;;;;;;;;;5048678;28;20242;-77
2022/08/20 09:47:21;;;;;;;5.80;1.70;;;;;;;;;;5061907;28;20262;-77
2022/08/20 09:49:48;;;;;;;5.63;1.60;;;;;;;;;;5060551;28;20281;-77
2022/08/20 09:52:20;;;;;;;8.20;1.70;;;;;;;;;;5061372;28;20675;-76
2022/08/20 09:54:47;;;;;;;4.88;1.52;;;;;;;;;;5069430;28;20227;-76
2022/08/20 09:57:15;;;;;;;5.72;1.48;;;;;;;;;;5055910;28;20305;-79
2022/08/20 09:59:43;;;;;;;6.40;1.52;;;;;;;;;;5064563;28;20191;-78
2022/08/20 10:02:10;;;;;;;6.03;1.48;;;;;;;;;;5052564;28;20231;-78
2022/08/20 10:04:38;;;;;;;7.68;1.80;;;;;;;;;;5057700;28;20676;-78
2022/08/20 10:07:07;;;;;;;4.72;1.27;;;;;;;;;;5053105;28;20206;-82
2022/08/20 10:09:37;;;;;;;5.85;1.63;;;;;;;;;;5055053;28;20206;-82
2022/08/20 10:12:04;;;;;;;5.78;1.48;;;;;;;;;;5052694;28;20196;-79
2022/08/20 10:14:32;;;;;;;4.93;1.63;;;;;;;;;;5053575;28;20631;-79
2022/08/20 10:16:59;;;;;;;5.95;1.60;;;;;;;;;;5062296;28;20203;-79
2022/08/20 10:19:26;;;;;;;6.15;1.77;;;;;;;;;;5060129;28;20278;-81
2022/08/20 10:21:54;;;;;;;7.15;1.70;;;;;;;;;;5052770;28;20257;-78
2022/08/20 10:24:22;;;;;;;7.15;1.60;;;;;;;;;;5058237;28;20243;-78
2022/08/20 10:26:51;;;;;;;4.18;1.60;;;;;;;;;;5058660;28;20206;-78
2022/08/20 10:29:18;;;;;;;8.63;1.73;;;;;;;;;;5064739;28;20258;-78
2022/08/20 10:31:45;;;;;;;6.18;1.50;;;;;;;;;;5053895;28;20286;-78
2022/08/20 10:34:12;;;;;;;5.82;1.65;;;;;;;;;;5053742;28;20226;-78
2022/08/20 10:36:42;;;;;;;3.53;1.33;;;;;;;;;;5054861;28;20226;-78
2022/08/20 10:39:09;;;;;;;5.45;1.42;;;;;;;;;;5061658;28;20292;-78
2022/08/20 10:41:36;;;;;;;3.80;1.65;;;;;;;;;;5059493;28;20345;-78
2022/08/20 10:44:05;;;;;;;5.88;1.70;;;;;;;;;;5060316;28;20287;-78
2022/08/20 10:46:32;;;;;;;6.07;1.65;;;;;;;;;;5054279;28;20235;-78
2022/08/20 10:48:59;;;;;;;5.53;1.60;;;;;;;;;;5056579;28;20250;-77
2022/08/20 10:51:26;;;;;;;5.43;1.63;;;;;;;;;;5059753;28;20229;-77
2022/08/20 10:53:54;;;;;;;5.43;1.52;;;;;;;;;;5057558;28;21121;-78
2022/08/20 10:56:21;;;;;;;3.95;1.63;;;;;;;;;;5054731;28;20253;-77
2022/08/20 10:58:48;;;;;;;5.85;2.00;;;;;;;;;;5069514;28;20251;-78
2022/08/20 11:01:17;;;;;;;5.22;1.50;;;;;;;;;;5066745;28;20290;-78
2022/08/20 11:03:44;;;;;;;5.07;1.67;;;;;;;;;;5055479;28;20235;-78
2022/08/20 11:06:11;;;;;;;4.22;1.63;;;;;;;;;;5054679;28;20236;-76
2022/08/20 11:08:39;;;;;;;4.45;1.60;;;;;;;;;;5058292;28;20309;-75
2022/08/20 11:11:06;;;;;;;4.50;1.40;;;;;;;;;;5064372;28;20260;-76
2022/08/20 11:13:33;;;;;;;3.97;1.45;;;;;;;;;;5065937;28;20231;-76
2022/08/20 11:16:01;;;;;;;4.18;1.40;;;;;;;;;;5060721;28;20235;-76
2022/08/20 11:18:32;;;;;;;6.28;2.17;;;;;;;;;;5056466;28;20233;-76
2022/08/20 11:21:00;;;;;;;4.25;1.60;;;;;;;;;;5058601;28;20199;-76
2022/08/20 11:23:27;;;;;;;7.63;1.88;;;;;;;;;;5058580;28;20675;-74
2022/08/20 11:25:54;;;;;;;5.78;1.85;;;;;;;;;;5057042;28;20294;-73
2022/08/20 11:28:22;;;;;;;7.05;1.58;;;;;;;;;;5050474;28;20274;-74
2022/08/20 11:30:49;;;;;;;3.83;1.70;;;;;;;;;;5053860;28;20247;-74
2022/08/20 11:33:17;;;;;;;6.35;1.67;;;;;;;;;;5056946;28;20205;-72
2022/08/20 11:35:46;;;;;;;7.45;1.65;;;;;;;;;;5059723;28;20238;-74
2022/08/20 11:38:13;;;;;;;5.03;1.70;;;;;;;;;;5064466;28;20286;-74
2022/08/20 11:40:40;;;;;;;4.22;1.67;;;;;;;;;;5063633;28;20287;-77
2022/08/20 11:43:08;;;;;;;6.07;1.77;;;;;;;;;;5067067;28;20227;-77
2022/08/20 11:45:35;;;;;;;4.50;1.38;;;;;;;;;;5064335;28;20239;-78
2022/08/20 11:48:02;;;;;;;5.43;1.60;;;;;;;;;;5060924;28;20742;-78
2022/08/20 11:50:29;;;;;;;6.90;1.63;;;;;;;;;;5061282;28;20198;-78
2022/08/20 11:52:58;;;;;;;4.07;1.27;;;;;;;;;;5052251;28;20291;-76
2022/08/20 11:55:25;;;;;;;4.63;1.50;;;;;;;;;;5063717;28;20760;-76
2022/08/20 11:57:52;;;;;;;3.67;1.17;;;;;;;;;;5062063;28;20652;-76
2022/08/20 12:00:21;;;;;;;6.25;1.90;;;;;;;;;;5066765;28;20283;-77
2022/08/20 12:02:50;;;;;;;3.72;1.40;;;;;;;;;;5067767;28;20196;-77
2022/08/20 12:05:17;;;;;;;3.67;1.40;;;;;;;;;;5066318;28;20633;-77
2022/08/20 12:07:45;;;;;;;5.05;1.73;;;;;;;;;;5064709;28;20203;-77
2022/08/20 12:10:14;;;;;;;5.25;1.48;;;;;;;;;;5068289;28;20283;-76
2022/08/20 12:12:42;;;;;;;4.18;1.42;;;;;;;;;;5056773;28;20235;-76
2022/08/20 12:15:10;;;;;;;5.15;1.55;;;;;;;;;;5063041;28;20278;-76
2022/08/20 12:17:38;;;;;;;5.38;1.48;;;;;;;;;;5050082;28;20227;-77
2022/08/20 12:20:11;;;;;;;7.22;1.50;;;;;;;;;;5052936;28;20207;-76
2022/08/20 12:22:38;;;;;;;3.45;1.17;;;;;;;;;;5051736;28;20212;-77
2022/08/20 12:25:07;;;;;;;5.13;1.35;;;;;;;;;;5057443;28;20264;-77
2022/08/20 12:27:36;;;;;;;5.30;1.40;;;;;;;;;;5054474;28;20199;-77
2022/08/20 12:30:05;;;;;;;4.05;1.45;;;;;;;;;;5065520;28;20284;-78
2022/08/20 12:32:32;;;;;;;5.20;1.58;;;;;;;;;;5056471;28;20246;-77
2022/08/20 12:35:00;;;;;;;5.32;1.67;;;;;;;;;;5060256;28;20231;-77
2022/08/20 12:37:28;;;;;;;7.75;1.85;;;;;;;;;;5061055;28;20231;-78
2022/08/20 12:39:56;;;;;;;4.53;1.55;;;;;;;;;;5054434;28;20254;-77
2022/08/20 12:42:23;;;;;;;5.53;1.70;;;;;;;;;;5069263;28;20242;-77
2022/08/20 12:44:52;;;;;;;7.53;1.77;;;;;;;;;;5057115;28;20242;-77
2022/08/20 12:47:21;;;;;;;6.00;1.60;;;;;;;;;;5058664;28;20267;-79
2022/08/20 12:49:52;;;;;;;5.53;1.70;;;;;;;;;;5056646;28;20255;-76
2022/08/20 12:52:20;;;;;;;5.90;1.52;;;;;;;;;;5066684;28;20288;-78
2022/08/20 12:54:47;;;;;;;4.43;1.33;;;;;;;;;;5067186;28;20195;-78
2022/08/20 12:57:14;;;;;;;3.88;1.70;;;;;;;;;;5063429;28;20202;-78
2022/08/20 12:59:42;;;;;;;5.53;1.67;;;;;;;;;;5054867;28;20282;-78
2022/08/20 13:02:10;;;;;;;5.03;1.52;;;;;;;;;;5059767;28;20239;-78
2022/08/20 13:04:38;;;;;;;7.13;1.58;;;;;;;;;;5054929;28;20283;-78
2022/08/20 13:07:05;;;;;;;5.30;1.60;;;;;;;;;;5058555;28;20196;-77
2022/08/20 13:09:33;;;;;;;5.90;1.50;;;;;;;;;;5062672;28;20310;-77
2022/08/20 13:12:00;;;;;;;3.67;1.50;;;;;;;;;;5060955;28;20285;-77
2022/08/20 13:14:27;;;;;;;5.88;1.77;;;;;;;;;;5059907;28;20279;-77
2022/08/20 13:16:56;;;;;;;3.83;1.45;;;;;;;;;;5059949;28;20257;-77
2022/08/20 13:19:25;;;;;;;5.00;1.42;;;;;;;;;;5068092;28;20659;-77
2022/08/20 13:21:52;;;;;;;6.40;1.60;;;;;;;;;;5061985;28;20195;-78
2022/08/20 13:24:19;;;;;;;5.03;1.40;;;;;;;;;;5059686;28;20227;-77
2022/08/20 13:26:47;;;;;;;4.93;1.23;;;;;;;;;;5062613;28;20234;-77
2022/08/20 13:29:14;;;;;;;3.15;1.45;;;;;;;;;;5062551;28;20623;-79
2022/08/20 13:31:41;;;;;;;3.63;1.45;;;;;;;;;;5071339;28;20287;-79
2022/08/20 13:34:09;;;;;;;5.80;1.73;;;;;;;;;;5063543;28;20230;-78
2022/08/20 13:36:39;;;;;;;4.75;1.38;;;;;;;;;;5063522;28;20282;-78
2022/08/20 13:39:07;;;;;;;4.38;1.45;;;;;;;;;;5053854;28;20191;-78
2022/08/20 13:41:35;;;;;;;4.55;1.23;;;;;;;;;;5052857;28;20292;-79
2022/08/20 13:44:02;;;;;;;3.85;1.25;;;;;;;;;;5060713;28;20205;-78
2022/08/20 13:46:29;;;;;;;4.85;1.70;;;;;;;;;;5053043;28;20305;-78
2022/08/20 13:48:57;;;;;;;4.47;1.25;;;;;;;;;;5054816;28;20227;-77
2022/08/20 13:51:24;;;;;;;6.03;1.30;;;;;;;;;;5058375;28;20223;-79
2022/08/20 13:53:53;;;;;;;3.97;1.45;;;;;;;;;;5072003;28;20230;-79
2022/08/20 13:56:20;;;;;;;2.78;1.30;;;;;;;;;;5063119;28;20231;-79
2022/08/20 13:58:47;;;;;;;8.25;1.63;;;;;;;;;;5064760;28;20247;-79
2022/08/20 14:01:15;;;;;;;2.60;1.25;;;;;;;;;;5063313;28;20272;-79
2022/08/20 14:03:42;;;;;;;3.70;1.33;;;;;;;;;;5052487;28;20304;-79
2022/08/20 14:06:09;;;;;;;3.13;1.27;;;;;;;;;;5054493;28;20282;-79
2022/08/20 14:08:36;;;;;;;3.78;1.30;;;;;;;;;;5063122;28;20211;-79
2022/08/20 14:11:05;;;;;;;3.38;1.40;;;;;;;;;;5056550;28;20258;-79
2022/08/20 14:13:32;;;;;;;2.50;1.08;;;;;;;;;;5058300;28;20195;-79
2022/08/20 14:16:00;;;;;;;4.00;1.77;;;;;;;;;;5059107;28;20230;-79
2022/08/20 14:18:27;;;;;;;3.85;1.15;;;;;;;;;;5058149;28;20284;-78
2022/08/20 14:20:55;;;;;;;3.15;1.20;;;;;;;;;;5067411;28;20213;-79
2022/08/20 14:23:22;;;;;;;4.15;1.50;;;;;;;;;;5058824;28;20194;-79
2022/08/20 14:25:49;;;;;;;5.57;1.63;;;;;;;;;;5069697;28;20702;-79
2022/08/20 14:28:19;;;;;;;4.43;1.23;;;;;;;;;;5059514;28;20195;-79
2022/08/20 14:30:47;;;;;;;3.45;1.20;;;;;;;;;;5056956;28;20227;-79
2022/08/20 14:33:14;;;;;;;3.58;1.33;;;;;;;;;;5061647;28;20235;-79
2022/08/20 14:35:41;;;;;;;2.97;1.15;;;;;;;;;;5070880;28;20226;-78
2022/08/20 14:38:09;;;;;;;3.05;1.20;;;;;;;;;;5052949;28;20735;-79
2022/08/20 14:40:36;;;;;;;6.90;1.40;;;;;;;;;;5063806;28;20274;-78
2022/08/20 14:43:03;;;;;;;2.08;1.10;;;;;;;;;;5055640;28;20268;-78
2022/08/20 14:45:32;;;;;;;4.82;1.58;;;;;;;;;;5054631;28;20282;-78
2022/08/20 14:47:59;;;;;;;4.28;1.20;;;;;;;;;;5065876;28;20258;-78
2022/08/20 14:50:29;;;;;;;2.92;1.10;;;;;;;;;;5062284;28;20301;-78
2022/08/20 14:52:57;;;;;;;4.72;1.23;;;;;;;;;;5054059;28;20238;-77
2022/08/20 14:55:25;;;;;;;3.55;1.33;;;;;;;;;;5059650;28;20242;-77
2022/08/20 14:57:52;;;;;;;4.25;1.10;;;;;;;;;;5055851;28;20738;-78